Time;durP1;ratioP1;P1;durP2;ratioP2;P2;SDS_P1;SDS_P2;PMS_P1;PMS_P2;Temp;Humidity;BMP_temperature;BMP_pressure;BME280_temperature;BME280_humidity;BME280_pressure;Samples;Min_cycle;Max_cycle;Signal;HPM_P1;HPM_P2
2022/08/28 00:00:14;;;;;;;4.45;2.40;;;;;;;;;;5008354;28;20030;-75
2022/08/28 00:02:40;;;;;;;6.75;2.42;;;;;;;;;;5008518;28;20033;-73
2022/08/28 00:05:06;;;;;;;4.20;2.50;;;;;;;;;;5008491;28;20026;-71
2022/08/28 00:07:32;;;;;;;6.60;2.35;;;;;;;;;;5008340;28;20029;-74
2022/08/28 00:09:58;;;;;;;4.50;2.30;;;;;;;;;;5007229;28;20402;-74
2022/08/28 00:12:23;;;;;;;4.43;2.40;;;;;;;;;;5008060;28;20030;-74
2022/08/28 00:14:48;;;;;;;5.32;2.33;;;;;;;;;;5008248;28;20030;-74
2022/08/28 00:17:14;;;;;;;3.97;2.30;;;;;;;;;;5008048;28;20489;-74
2022/08/28 00:19:39;;;;;;;5.03;2.40;;;;;;;;;;5008085;28;20060;-74
2022/08/28 00:22:06;;;;;;;4.18;2.10;;;;;;;;;;5008169;28;20026;-73
2022/08/28 00:24:31;;;;;;;4.15;2.30;;;;;;;;;;5008168;28;20022;-74
2022/08/28 00:29:41;;;;;;;7.60;2.30;;;;;;;;;;4993039;28;20551;-74
2022/08/28 00:32:07;;;;;;;6.45;2.42;;;;;;;;;;5007876;28;20026;-74
2022/08/28 00:34:33;;;;;;;5.53;2.33;;;;;;;;;;5007975;28;20022;-74
2022/08/28 00:36:59;;;;;;;4.78;2.72;;;;;;;;;;5007833;28;20030;-74
2022/08/28 00:39:24;;;;;;;4.93;3.10;;;;;;;;;;5007830;28;20026;-74
2022/08/28 00:41:51;;;;;;;5.07;2.90;;;;;;;;;;5007915;28;20029;-74
2022/08/28 00:44:22;;;;;;;7.43;3.05;;;;;;;;;;5007783;28;20171;-74
2022/08/28 00:46:50;;;;;;;4.75;2.75;;;;;;;;;;5007766;28;20626;-74
2022/08/28 00:49:22;;;;;;;4.82;2.95;;;;;;;;;;5007536;28;20485;-74
2022/08/28 00:52:06;;;;;;;4.45;2.75;;;;;;;;;;5007609;28;20022;-74
2022/08/28 00:54:35;;;;;;;4.15;2.78;;;;;;;;;;5007613;28;20034;-74
2022/08/28 00:57:03;;;;;;;6.40;3.28;;;;;;;;;;5007516;28;20638;-74
2022/08/28 00:59:29;;;;;;;6.40;3.00;;;;;;;;;;4989848;28;20029;-74
2022/08/28 01:01:56;;;;;;;5.30;3.05;;;;;;;;;;5007787;28;20033;-74
2022/08/28 01:04:24;;;;;;;5.88;2.92;;;;;;;;;;5007478;28;20397;-74
2022/08/28 01:06:52;;;;;;;5.15;2.85;;;;;;;;;;5007430;28;20045;-74
2022/08/28 01:09:19;;;;;;;5.53;2.58;;;;;;;;;;5007084;28;20037;-74
2022/08/28 01:11:47;;;;;;;6.28;2.80;;;;;;;;;;5007363;28;20431;-74
2022/08/28 01:14:15;;;;;;;4.95;2.53;;;;;;;;;;5007277;28;20026;-74
2022/08/28 01:16:42;;;;;;;6.45;2.63;;;;;;;;;;5007486;28;20038;-74
2022/08/28 01:19:17;;;;;;;6.70;2.70;;;;;;;;;;5007421;28;20470;-73
2022/08/28 01:22:06;;;;;;;4.43;2.67;;;;;;;;;;5013744;28;20022;-73
2022/08/28 01:24:32;;;;;;;6.50;2.50;;;;;;;;;;5013693;28;20109;-74
2022/08/28 01:26:57;;;;;;;5.13;2.15;;;;;;;;;;5013620;28;20061;-74
2022/08/28 01:29:22;;;;;;;4.00;2.38;;;;;;;;;;5013521;28;20115;-73
2022/08/28 01:31:48;;;;;;;5.80;2.10;;;;;;;;;;5013881;28;20030;-73
2022/08/28 01:34:13;;;;;;;4.38;2.15;;;;;;;;;;5013760;28;20603;-73
2022/08/28 01:36:40;;;;;;;5.85;2.22;;;;;;;;;;5013715;28;20063;-74
2022/08/28 01:39:18;;;;;;;4.10;2.33;;;;;;;;;;5019102;28;20256;-73
2022/08/28 01:41:46;;;;;;;6.00;2.20;;;;;;;;;;5022611;28;20026;-74
2022/08/28 01:44:15;;;;;;;5.28;2.30;;;;;;;;;;5018852;28;20050;-74
2022/08/28 01:46:42;;;;;;;4.22;2.22;;;;;;;;;;5013586;28;20117;-74
2022/08/28 01:49:10;;;;;;;4.57;2.10;;;;;;;;;;5013426;28;20034;-74
2022/08/28 01:51:40;;;;;;;6.10;2.10;;;;;;;;;;5013428;28;20034;-74
2022/08/28 01:54:07;;;;;;;6.20;2.17;;;;;;;;;;4995964;28;20504;-74
2022/08/28 01:56:32;;;;;;;3.92;2.13;;;;;;;;;;5013320;28;20489;-73
2022/08/28 01:59:01;;;;;;;3.75;2.42;;;;;;;;;;5013381;28;20030;-74
2022/08/28 02:01:26;;;;;;;4.47;2.25;;;;;;;;;;5013072;28;20029;-74
2022/08/28 02:03:52;;;;;;;3.42;2.13;;;;;;;;;;5013296;28;20478;-74
2022/08/28 02:06:18;;;;;;;3.80;2.45;;;;;;;;;;5013226;28;20041;-74
2022/08/28 02:08:44;;;;;;;5.07;2.47;;;;;;;;;;5013816;28;20030;-74
2022/08/28 02:11:11;;;;;;;5.97;2.20;;;;;;;;;;5013368;28;20553;-74
2022/08/28 02:13:37;;;;;;;6.40;2.20;;;;;;;;;;5013040;28;20079;-74
2022/08/28 02:16:05;;;;;;;5.18;2.47;;;;;;;;;;5013170;28;20034;-74
2022/08/28 02:18:31;;;;;;;4.63;2.38;;;;;;;;;;5018419;28;20033;-73
2022/08/28 02:20:56;;;;;;;4.18;2.42;;;;;;;;;;5024257;28;20026;-73
2022/08/28 02:23:22;;;;;;;4.43;2.42;;;;;;;;;;5023159;28;20029;-73
2022/08/28 02:25:47;;;;;;;5.22;2.58;;;;;;;;;;5023960;28;20033;-74
2022/08/28 02:28:13;;;;;;;4.20;2.45;;;;;;;;;;5024012;28;20029;-73
2022/08/28 02:30:40;;;;;;;5.90;2.30;;;;;;;;;;5023884;28;20087;-73
2022/08/28 02:33:05;;;;;;;8.27;2.40;;;;;;;;;;5018965;28;20037;-75
2022/08/28 02:35:31;;;;;;;3.85;2.45;;;;;;;;;;5021005;28;20037;-74
2022/08/28 02:37:57;;;;;;;5.97;2.33;;;;;;;;;;5020955;28;20067;-74
2022/08/28 02:40:24;;;;;;;4.82;2.22;;;;;;;;;;5020431;28;20221;-74
2022/08/28 02:42:50;;;;;;;3.95;2.22;;;;;;;;;;5020541;28;20042;-75
2022/08/28 02:45:17;;;;;;;4.32;2.35;;;;;;;;;;5021009;28;20408;-75
2022/08/28 02:47:44;;;;;;;5.85;2.13;;;;;;;;;;5020764;28;20083;-74
2022/08/28 02:50:13;;;;;;;6.03;2.20;;;;;;;;;;5020738;28;20037;-74
2022/08/28 02:52:40;;;;;;;4.10;2.17;;;;;;;;;;5020900;28;20188;-75
2022/08/28 02:55:06;;;;;;;6.13;2.08;;;;;;;;;;5020583;28;20033;-75
2022/08/28 02:57:32;;;;;;;4.93;2.15;;;;;;;;;;5019619;28;20105;-74
2022/08/28 02:59:58;;;;;;;3.88;2.10;;;;;;;;;;5019363;28;20036;-74
2022/08/28 03:02:27;;;;;;;4.25;2.17;;;;;;;;;;5015812;28;20061;-74
2022/08/28 03:04:53;;;;;;;5.70;2.00;;;;;;;;;;5007618;28;20564;-74
2022/08/28 03:07:20;;;;;;;3.03;2.08;;;;;;;;;;5007374;28;20058;-74
2022/08/28 03:09:46;;;;;;;4.57;2.08;;;;;;;;;;5007427;28;20034;-74
2022/08/28 03:12:15;;;;;;;4.50;2.00;;;;;;;;;;5007127;28;20033;-74
2022/08/28 03:14:41;;;;;;;3.60;1.90;;;;;;;;;;5008576;28;20033;-74
2022/08/28 03:17:07;;;;;;;2.72;2.08;;;;;;;;;;5009167;28;20026;-74
2022/08/28 03:19:32;;;;;;;3.75;2.40;;;;;;;;;;5009201;28;20057;-74
2022/08/28 03:21:58;;;;;;;6.30;2.00;;;;;;;;;;5009015;28;20083;-73
2022/08/28 03:24:23;;;;;;;4.75;1.98;;;;;;;;;;5009125;28;20029;-74
2022/08/28 03:26:49;;;;;;;5.25;2.13;;;;;;;;;;5008958;28;20069;-73
2022/08/28 03:29:15;;;;;;;5.30;2.13;;;;;;;;;;5008796;28;20030;-74
2022/08/28 03:31:40;;;;;;;4.00;1.80;;;;;;;;;;5011120;28;20052;-74
2022/08/28 03:34:06;;;;;;;3.22;2.10;;;;;;;;;;5012402;28;20029;-74
2022/08/28 03:36:32;;;;;;;3.13;1.95;;;;;;;;;;5014585;28;20120;-74
2022/08/28 03:38:59;;;;;;;5.72;2.10;;;;;;;;;;5020015;28;20045;-74
2022/08/28 03:41:27;;;;;;;4.65;2.10;;;;;;;;;;5019781;28;20358;-74
2022/08/28 03:43:56;;;;;;;4.85;2.10;;;;;;;;;;5018655;28;20072;-74
2022/08/28 03:46:22;;;;;;;3.30;2.20;;;;;;;;;;5015773;28;20022;-74
2022/08/28 03:48:49;;;;;;;7.65;2.30;;;;;;;;;;5008642;28;20173;-73
2022/08/28 03:51:21;;;;;;;2.97;2.08;;;;;;;;;;5008320;28;20033;-74
2022/08/28 03:53:46;;;;;;;3.60;2.10;;;;;;;;;;5008759;28;20521;-74
2022/08/28 03:56:20;;;;;;;4.30;2.15;;;;;;;;;;5008555;28;20036;-74
2022/08/28 03:58:46;;;;;;;4.28;2.20;;;;;;;;;;5008491;28;20105;-74
2022/08/28 04:01:12;;;;;;;3.63;2.20;;;;;;;;;;5008319;28;20026;-74
2022/08/28 04:03:37;;;;;;;4.25;2.20;;;;;;;;;;5008244;28;20030;-74
2022/08/28 04:06:03;;;;;;;3.60;1.90;;;;;;;;;;5008250;28;20064;-74
2022/08/28 04:08:29;;;;;;;3.20;2.08;;;;;;;;;;5008423;28;20026;-72
2022/08/28 04:10:55;;;;;;;4.65;2.25;;;;;;;;;;5008232;28;20022;-72
2022/08/28 04:13:22;;;;;;;3.70;2.30;;;;;;;;;;5008291;28;20033;-72
2022/08/28 04:16:06;;;;;;;3.75;2.13;;;;;;;;;;5008297;28;20034;-72
2022/08/28 04:18:32;;;;;;;3.50;2.13;;;;;;;;;;5008312;28;20509;-72
2022/08/28 04:21:06;;;;;;;4.38;2.35;;;;;;;;;;4995475;28;20063;-72
2022/08/28 04:23:37;;;;;;;5.13;2.13;;;;;;;;;;5008419;28;20147;-72
2022/08/28 04:26:06;;;;;;;9.85;2.40;;;;;;;;;;5008144;28;20026;-73
2022/08/28 04:28:32;;;;;;;4.50;2.10;;;;;;;;;;5007969;28;20030;-72
2022/08/28 04:30:57;;;;;;;4.15;2.30;;;;;;;;;;5007890;28;20034;-72
2022/08/28 04:33:25;;;;;;;3.38;2.22;;;;;;;;;;5007865;28;20542;-72
2022/08/28 04:35:50;;;;;;;2.75;1.85;;;;;;;;;;5007946;28;20022;-72
2022/08/28 04:38:17;;;;;;;5.32;2.15;;;;;;;;;;5007957;28;20390;-72
2022/08/28 04:40:42;;;;;;;4.28;2.20;;;;;;;;;;5007557;28;20644;-72
2022/08/28 04:43:08;;;;;;;2.92;1.90;;;;;;;;;;5007391;28;20042;-72
2022/08/28 04:45:44;;;;;;;2.60;1.88;;;;;;;;;;5007964;28;20404;-72
2022/08/28 04:48:14;;;;;;;3.22;1.92;;;;;;;;;;5011576;28;20033;-72
2022/08/28 04:50:49;;;;;;;2.85;1.92;;;;;;;;;;5018803;28;20267;-72
2022/08/28 04:53:17;;;;;;;2.72;2.00;;;;;;;;;;5014970;28;20049;-74
2022/08/28 04:55:45;;;;;;;2.67;1.88;;;;;;;;;;4988985;28;20506;-72
2022/08/28 04:58:12;;;;;;;4.28;1.85;;;;;;;;;;5007447;28;20017;-72
2022/08/28 05:00:39;;;;;;;3.72;2.00;;;;;;;;;;5007395;28;20022;-72
2022/08/28 05:03:04;;;;;;;3.33;2.00;;;;;;;;;;5006802;28;20030;-72
2022/08/28 05:05:30;;;;;;;6.57;2.00;;;;;;;;;;5007212;28;20037;-72
2022/08/28 05:07:55;;;;;;;5.75;2.10;;;;;;;;;;5007698;28;20105;-72
2022/08/28 05:10:21;;;;;;;4.28;2.10;;;;;;;;;;5007467;28;20030;-72
2022/08/28 05:12:46;;;;;;;3.53;2.08;;;;;;;;;;5007289;28;20025;-72
2022/08/28 05:15:12;;;;;;;5.50;1.90;;;;;;;;;;5007181;28;20090;-72
2022/08/28 05:17:38;;;;;;;3.00;1.90;;;;;;;;;;5007501;28;20036;-72
2022/08/28 05:20:04;;;;;;;4.18;1.90;;;;;;;;;;4989596;28;20030;-71
2022/08/28 05:22:31;;;;;;;5.45;1.90;;;;;;;;;;5007470;28;20026;-71
2022/08/28 05:24:56;;;;;;;4.90;1.95;;;;;;;;;;5007432;28;20034;-71
2022/08/28 05:27:23;;;;;;;4.60;2.08;;;;;;;;;;5007243;28;20026;-71
2022/08/28 05:29:49;;;;;;;5.85;2.20;;;;;;;;;;5007136;28;20104;-72
2022/08/28 05:32:14;;;;;;;3.78;2.00;;;;;;;;;;5010822;28;20037;-72
2022/08/28 05:34:40;;;;;;;3.72;1.95;;;;;;;;;;5010983;28;20025;-72
2022/08/28 05:37:07;;;;;;;6.50;2.20;;;;;;;;;;5017152;28;20041;-74
2022/08/28 05:39:33;;;;;;;10.07;2.58;;;;;;;;;;5007073;28;20030;-71
2022/08/28 05:41:58;;;;;;;4.53;2.22;;;;;;;;;;5006948;28;20041;-74
2022/08/28 05:44:24;;;;;;;5.28;2.10;;;;;;;;;;5006991;28;20050;-82
2022/08/28 05:46:49;;;;;;;4.03;2.20;;;;;;;;;;5006991;28;20183;-74
2022/08/28 05:49:17;;;;;;;4.75;2.22;;;;;;;;;;5007052;28;20022;-76
2022/08/28 05:51:43;;;;;;;3.08;2.08;;;;;;;;;;5006944;28;20424;-81
2022/08/28 05:54:09;;;;;;;4.43;2.17;;;;;;;;;;5006868;28;20469;-81
2022/08/28 05:56:37;;;;;;;9.27;2.20;;;;;;;;;;5007305;28;20030;-81
2022/08/28 05:59:05;;;;;;;5.10;1.98;;;;;;;;;;5007026;28;20033;-80
2022/08/28 06:01:32;;;;;;;3.28;2.25;;;;;;;;;;5006817;28;20022;-81
2022/08/28 06:04:00;;;;;;;3.42;2.20;;;;;;;;;;5006946;28;20389;-81
2022/08/28 06:06:29;;;;;;;4.40;1.80;;;;;;;;;;5006823;28;20112;-81
2022/08/28 06:09:00;;;;;;;3.58;2.17;;;;;;;;;;5010371;28;20026;-81
2022/08/28 06:11:28;;;;;;;4.03;2.15;;;;;;;;;;5009733;28;20086;-81
2022/08/28 06:13:54;;;;;;;3.22;2.03;;;;;;;;;;5010159;28;20511;-81
2022/08/28 06:16:20;;;;;;;5.88;2.33;;;;;;;;;;4992431;28;20552;-83
2022/08/28 06:18:45;;;;;;;5.68;1.88;;;;;;;;;;5010098;28;20432;-84
2022/08/28 06:21:11;;;;;;;7.45;2.20;;;;;;;;;;5009917;28;20022;-81
2022/08/28 06:23:37;;;;;;;3.53;2.10;;;;;;;;;;5009815;28;20029;-74
2022/08/28 06:26:04;;;;;;;5.68;2.20;;;;;;;;;;5010113;28;20030;-72
2022/08/28 06:28:30;;;;;;;4.38;2.20;;;;;;;;;;5010921;28;20026;-73
2022/08/28 06:30:56;;;;;;;4.65;2.10;;;;;;;;;;5020032;28;20060;-73
2022/08/28 06:33:22;;;;;;;9.25;2.45;;;;;;;;;;5021025;28;20041;-72
2022/08/28 06:35:51;;;;;;;4.40;2.42;;;;;;;;;;5017131;28;20034;-72
2022/08/28 06:38:22;;;;;;;3.92;2.17;;;;;;;;;;5013843;28;20030;-71
2022/08/28 06:40:51;;;;;;;4.32;2.28;;;;;;;;;;5009220;28;20366;-71
2022/08/28 06:43:18;;;;;;;3.33;2.30;;;;;;;;;;4990131;28;20042;-71
2022/08/28 06:45:46;;;;;;;3.50;1.98;;;;;;;;;;5008289;28;20500;-72
2022/08/28 06:48:15;;;;;;;3.03;2.00;;;;;;;;;;5008081;28;20393;-72
2022/08/28 06:50:43;;;;;;;7.85;2.53;;;;;;;;;;5008307;28;20026;-74
2022/08/28 06:53:10;;;;;;;4.57;2.20;;;;;;;;;;5008073;28;20497;-74
2022/08/28 06:55:37;;;;;;;3.40;1.98;;;;;;;;;;5007887;28;20073;-71
2022/08/28 06:58:03;;;;;;;5.03;2.10;;;;;;;;;;5009396;28;20602;-75
2022/08/28 07:00:29;;;;;;;4.93;2.30;;;;;;;;;;5009236;28;20112;-74
2022/08/28 07:02:54;;;;;;;3.60;2.30;;;;;;;;;;5008223;28;20448;-73
2022/08/28 07:05:20;;;;;;;4.10;2.50;;;;;;;;;;5009431;28;20114;-76
2022/08/28 07:07:45;;;;;;;4.05;2.40;;;;;;;;;;5009433;28;20101;-77
2022/08/28 07:10:11;;;;;;;4.10;2.20;;;;;;;;;;5009369;28;20674;-77
2022/08/28 07:12:36;;;;;;;5.00;2.08;;;;;;;;;;4990146;28;20049;-75
2022/08/28 07:15:03;;;;;;;3.92;2.33;;;;;;;;;;5009137;28;20029;-75
2022/08/28 07:17:29;;;;;;;2.97;2.13;;;;;;;;;;5008293;28;20034;-77
2022/08/28 07:19:55;;;;;;;6.72;2.20;;;;;;;;;;5009171;28;20034;-76
2022/08/28 07:22:21;;;;;;;5.20;2.10;;;;;;;;;;5008770;28;20470;-73
2022/08/28 07:24:47;;;;;;;8.02;2.40;;;;;;;;;;4991862;28;20098;-74
2022/08/28 07:27:12;;;;;;;6.60;2.22;;;;;;;;;;5008953;28;20465;-72
2022/08/28 07:29:38;;;;;;;4.80;1.98;;;;;;;;;;5008899;28;20026;-71
2022/08/28 07:32:03;;;;;;;5.70;2.10;;;;;;;;;;5008647;28;20038;-73
2022/08/28 07:34:29;;;;;;;3.00;1.85;;;;;;;;;;5008758;28;20034;-72
2022/08/28 07:36:57;;;;;;;5.63;2.28;;;;;;;;;;5008560;28;20508;-73
2022/08/28 07:39:22;;;;;;;2.92;2.00;;;;;;;;;;5008839;28;20037;-72
2022/08/28 07:41:49;;;;;;;4.70;2.00;;;;;;;;;;5008535;28;20025;-70
2022/08/28 07:47:04;;;;;;;5.07;2.08;;;;;;;;;;5009621;28;20124;-69
2022/08/28 07:49:32;;;;;;;4.03;2.00;;;;;;;;;;5011853;28;20050;-71
2022/08/28 07:51:57;;;;;;;5.40;2.20;;;;;;;;;;5009744;28;20449;-71
2022/08/28 07:54:23;;;;;;;4.22;2.10;;;;;;;;;;5019126;28;20020;-71
2022/08/28 07:56:49;;;;;;;4.68;2.05;;;;;;;;;;5019219;28;20075;-72
2022/08/28 07:59:15;;;;;;;4.78;2.10;;;;;;;;;;5019036;28;20030;-71
2022/08/28 08:01:43;;;;;;;6.70;2.03;;;;;;;;;;5019637;28;20195;-73
2022/08/28 08:04:14;;;;;;;4.43;2.00;;;;;;;;;;5019908;28;20059;-70
2022/08/28 08:06:40;;;;;;;3.92;2.08;;;;;;;;;;5011568;28;20030;-71
2022/08/28 08:09:08;;;;;;;3.83;2.10;;;;;;;;;;4990618;28;20037;-70
2022/08/28 08:11:34;;;;;;;5.47;2.38;;;;;;;;;;5008149;28;20030;-73
2022/08/28 08:14:04;;;;;;;3.70;2.10;;;;;;;;;;5008119;28;20437;-70
2022/08/28 08:16:32;;;;;;;;;;;;;;;;;;5009736;28;20034;-70
2022/08/28 08:18:58;;;;;;;6.22;2.13;;;;;;;;;;5009724;28;20020;-70
2022/08/28 08:21:23;;;;;;;4.20;2.20;;;;;;;;;;4990510;28;20159;-70
2022/08/28 08:23:48;;;;;;;6.32;2.30;;;;;;;;;;5007941;28;20594;-69
2022/08/28 08:26:20;;;;;;;4.10;2.20;;;;;;;;;;5007844;28;20592;-70
2022/08/28 08:28:46;;;;;;;4.40;2.20;;;;;;;;;;5007624;28;20034;-71
2022/08/28 08:31:13;;;;;;;4.50;2.17;;;;;;;;;;4988898;28;20070;-76
2022/08/28 08:33:42;;;;;;;3.70;2.10;;;;;;;;;;4990244;28;20048;-73
2022/08/28 08:36:09;;;;;;;4.88;2.30;;;;;;;;;;4988602;28;20044;-72
2022/08/28 08:38:36;;;;;;;3.22;2.08;;;;;;;;;;5006174;28;20054;-72
2022/08/28 08:41:12;;;;;;;3.38;2.20;;;;;;;;;;5011406;28;20113;-69
2022/08/28 08:43:54;;;;;;;4.57;2.10;;;;;;;;;;5005677;28;20042;-71
2022/08/28 08:46:26;;;;;;;4.25;2.00;;;;;;;;;;5006148;28;20037;-70
2022/08/28 08:48:52;;;;;;;6.75;2.20;;;;;;;;;;4989689;28;20515;-71
2022/08/28 08:51:36;;;;;;;2.83;2.10;;;;;;;;;;5008429;28;20030;-71
2022/08/28 08:54:09;;;;;;;5.85;2.17;;;;;;;;;;5008924;28;20022;-69
2022/08/28 08:56:35;;;;;;;4.35;2.08;;;;;;;;;;5008377;28;20477;-71
2022/08/28 08:59:02;;;;;;;3.92;2.00;;;;;;;;;;5006419;28;20029;-70
2022/08/28 09:01:44;;;;;;;3.28;1.92;;;;;;;;;;5007302;28;20026;-71
2022/08/28 09:04:18;;;;;;;3.22;2.15;;;;;;;;;;5007121;28;20034;-72
2022/08/28 09:06:49;;;;;;;3.58;2.20;;;;;;;;;;5005114;28;20037;-70
2022/08/28 09:09:36;;;;;;;3.78;2.00;;;;;;;;;;5007141;28;20046;-70
2022/08/28 09:12:07;;;;;;;5.20;1.92;;;;;;;;;;5011898;28;20049;-71
2022/08/28 09:15:11;;;;;;;4.63;2.10;;;;;;;;;;5006682;28;20090;-71
2022/08/28 09:17:43;;;;;;;4.45;1.80;;;;;;;;;;4987226;28;20042;-71
2022/08/28 09:20:12;;;;;;;7.78;2.10;;;;;;;;;;4986722;28;20057;-71
2022/08/28 09:22:43;;;;;;;3.10;1.75;;;;;;;;;;4987935;28;20022;-71
2022/08/28 09:25:10;;;;;;;2.55;1.90;;;;;;;;;;4987831;28;20042;-72
2022/08/28 09:27:45;;;;;;;3.50;1.85;;;;;;;;;;4989373;28;20093;-71
2022/08/28 09:30:11;;;;;;;3.05;1.83;;;;;;;;;;4987683;28;20484;-71
2022/08/28 09:32:42;;;;;;;2.42;1.70;;;;;;;;;;4992206;28;20113;-71
2022/08/28 09:35:12;;;;;;;2.58;1.73;;;;;;;;;;5006229;28;20467;-72
2022/08/28 09:37:40;;;;;;;2.75;1.77;;;;;;;;;;5006395;28;20113;-70
2022/08/28 09:43:27;;;;;;;3.15;1.90;;;;;;;;;;5010019;28;20111;-71
2022/08/28 09:45:58;;;;;;;4.68;1.80;;;;;;;;;;4993634;28;20492;-71
2022/08/28 09:48:36;;;;;;;3.03;1.70;;;;;;;;;;5010970;28;20046;-70
2022/08/28 09:51:29;;;;;;;3.30;1.75;;;;;;;;;;4992379;28;20026;-70
2022/08/28 09:54:11;;;;;;;2.92;1.70;;;;;;;;;;5008653;28;20258;-70
2022/08/28 09:56:40;;;;;;;3.65;1.75;;;;;;;;;;5009633;28;20498;-70
2022/08/28 09:59:09;;;;;;;3.28;1.60;;;;;;;;;;5007474;28;20034;-71
2022/08/28 10:01:40;;;;;;;2.38;1.60;;;;;;;;;;5007755;28;20118;-71
2022/08/28 10:04:12;;;;;;;4.43;1.90;;;;;;;;;;5007652;28;20030;-70
2022/08/28 10:06:52;;;;;;;2.42;1.70;;;;;;;;;;5008699;28;20180;-71
2022/08/28 10:09:17;;;;;;;2.55;1.70;;;;;;;;;;5015470;28;20075;-71
2022/08/28 10:12:15;;;;;;;3.20;1.60;;;;;;;;;;5004466;28;20031;-71
2022/08/28 10:14:58;;;;;;;2.83;1.70;;;;;;;;;;4954380;28;20092;-72
2022/08/28 10:17:38;;;;;;;3.08;1.60;;;;;;;;;;5019580;28;20218;-72
2022/08/28 10:20:12;;;;;;;3.97;1.70;;;;;;;;;;5014445;28;20030;-73
2022/08/28 10:22:37;;;;;;;3.08;1.60;;;;;;;;;;5000629;28;20033;-71
2022/08/28 10:25:32;;;;;;;2.75;1.67;;;;;;;;;;4999682;28;20034;-72
2022/08/28 10:28:06;;;;;;;3.92;1.77;;;;;;;;;;5007848;28;20335;-72
2022/08/28 10:30:41;;;;;;;3.67;1.80;;;;;;;;;;5019037;28;20026;-72
2022/08/28 10:33:20;;;;;;;2.50;1.50;;;;;;;;;;5018694;28;20062;-72
2022/08/28 10:35:58;;;;;;;3.33;1.70;;;;;;;;;;5014729;28;20082;-72
2022/08/28 10:38:43;;;;;;;4.45;1.60;;;;;;;;;;4999540;28;20439;-73
2022/08/28 10:41:13;;;;;;;3.00;1.63;;;;;;;;;;5000953;28;20046;-73
2022/08/28 10:43:46;;;;;;;2.72;1.70;;;;;;;;;;4999344;28;20054;-75
2022/08/28 10:46:18;;;;;;;2.45;1.73;;;;;;;;;;4999869;28;20042;-78
2022/08/28 10:48:52;;;;;;;4.28;1.80;;;;;;;;;;4999531;28;20058;-71
2022/08/28 10:51:30;;;;;;;2.80;1.63;;;;;;;;;;4999363;28;20026;-72
2022/08/28 10:54:18;;;;;;;2.53;1.60;;;;;;;;;;4997767;28;20076;-71
2022/08/28 10:56:54;;;;;;;3.05;1.90;;;;;;;;;;4951112;28;20117;-73
2022/08/28 10:59:21;;;;;;;3.65;1.70;;;;;;;;;;4999231;28;20284;-74
2022/08/28 11:01:47;;;;;;;4.82;1.70;;;;;;;;;;5000219;28;20030;-69
2022/08/28 11:04:20;;;;;;;3.58;1.70;;;;;;;;;;4999769;28;20030;-72
2022/08/28 11:06:50;;;;;;;4.22;1.70;;;;;;;;;;4999659;28;20034;-74
2022/08/28 11:09:29;;;;;;;2.67;1.77;;;;;;;;;;4999706;28;20058;-75
2022/08/28 11:11:56;;;;;;;2.97;1.63;;;;;;;;;;5000003;28;20049;-75
2022/08/28 11:14:30;;;;;;;3.55;1.83;;;;;;;;;;4998985;28;20026;-73
2022/08/28 11:17:02;;;;;;;3.78;1.67;;;;;;;;;;4999293;28;20034;-73
2022/08/28 11:19:54;;;;;;;2.88;1.90;;;;;;;;;;4999585;28;20041;-71
2022/08/28 11:22:25;;;;;;;3.78;2.00;;;;;;;;;;5000353;28;20026;-73
2022/08/28 11:25:09;;;;;;;;;;;;;;;;;;5001128;28;20055;-72
2022/08/28 11:27:36;;;;;;;3.08;1.60;;;;;;;;;;4983408;28;19910;-72
2022/08/28 11:30:01;;;;;;;4.60;1.88;;;;;;;;;;5000821;28;20337;-74
2022/08/28 11:32:33;;;;;;;3.63;2.05;;;;;;;;;;5000692;28;20034;-72
2022/08/28 11:35:10;;;;;;;3.60;1.80;;;;;;;;;;5000557;28;20035;-72
2022/08/28 11:37:48;;;;;;;4.28;1.92;;;;;;;;;;5000582;28;20061;-75
2022/08/28 11:40:16;;;;;;;4.68;1.80;;;;;;;;;;5000578;28;20030;-76
2022/08/28 11:42:47;;;;;;;2.58;1.80;;;;;;;;;;5000347;28;20093;-73
2022/08/28 11:45:31;;;;;;;;;;;;;;;;;;5000875;28;20027;-74
2022/08/28 11:47:56;;;;;;;2.60;1.70;;;;;;;;;;5000656;28;19989;-74
2022/08/28 11:50:27;;;;;;;3.28;1.63;;;;;;;;;;4999858;28;20034;-73
2022/08/28 11:53:17;;;;;;;5.13;1.90;;;;;;;;;;5000262;28;20288;-77
2022/08/28 11:55:45;;;;;;;3.08;1.70;;;;;;;;;;4999299;28;20026;-83
2022/08/28 11:58:22;;;;;;;4.53;1.60;;;;;;;;;;4998903;28;20041;-75
2022/08/28 12:00:55;;;;;;;3.15;1.80;;;;;;;;;;4998869;28;20023;-72
2022/08/28 12:03:30;;;;;;;2.60;1.60;;;;;;;;;;5007924;28;20075;-73
2022/08/28 12:05:57;;;;;;;3.13;1.58;;;;;;;;;;5010443;28;20030;-73
2022/08/28 12:08:47;;;;;;;4.75;1.70;;;;;;;;;;5010754;28;20113;-73
2022/08/28 12:11:38;;;;;;;4.57;1.73;;;;;;;;;;5012600;28;20053;-73
2022/08/28 12:14:04;;;;;;;2.33;1.50;;;;;;;;;;4993918;28;20556;-73
2022/08/28 12:16:58;;;;;;;3.47;1.80;;;;;;;;;;4988658;28;20042;-73
2022/08/28 12:19:35;;;;;;;3.78;1.73;;;;;;;;;;4998758;28;20033;-73
2022/08/28 12:22:22;;;;;;;3.53;1.63;;;;;;;;;;5009282;28;20026;-73
2022/08/28 12:25:02;;;;;;;3.55;1.77;;;;;;;;;;5010639;28;20037;-73
2022/08/28 12:27:28;;;;;;;2.92;1.88;;;;;;;;;;4992224;28;20101;-78
2022/08/28 12:30:00;;;;;;;4.13;1.73;;;;;;;;;;5007965;28;20405;-73
2022/08/28 12:32:56;;;;;;;3.08;1.70;;;;;;;;;;5007925;28;20391;-73
2022/08/28 12:35:29;;;;;;;3.10;1.60;;;;;;;;;;5006925;28;20026;-75
2022/08/28 12:37:54;;;;;;;2.83;1.70;;;;;;;;;;5006999;28;20063;-74
2022/08/28 12:40:38;;;;;;;4.40;2.00;;;;;;;;;;5007609;28;20030;-74
2022/08/28 12:43:06;;;;;;;2.67;1.80;;;;;;;;;;5007677;28;20049;-76
2022/08/28 12:45:52;;;;;;;4.15;1.63;;;;;;;;;;5007373;28;20538;-79
2022/08/28 12:48:22;;;;;;;3.25;1.70;;;;;;;;;;4990283;28;20029;-73
2022/08/28 12:51:04;;;;;;;4.20;1.80;;;;;;;;;;5007592;28;20034;-75
2022/08/28 12:53:37;;;;;;;3.95;1.80;;;;;;;;;;5007561;28;20026;-77
2022/08/28 12:56:03;;;;;;;3.80;1.80;;;;;;;;;;5006150;28;20026;-77
2022/08/28 12:58:30;;;;;;;6.05;1.98;;;;;;;;;;5007342;28;20103;-77
2022/08/28 13:00:59;;;;;;;4.72;1.90;;;;;;;;;;5007582;28;20030;-77
2022/08/28 13:03:28;;;;;;;4.72;1.70;;;;;;;;;;5007465;28;20026;-73
2022/08/28 13:05:57;;;;;;;2.25;1.60;;;;;;;;;;5007570;28;20634;-74
2022/08/28 13:08:23;;;;;;;6.07;2.00;;;;;;;;;;5007194;28;20018;-76
2022/08/28 13:10:50;;;;;;;3.38;1.80;;;;;;;;;;5006862;28;20394;-83
2022/08/28 13:13:21;;;;;;;4.72;1.88;;;;;;;;;;5008692;28;20085;-76
2022/08/28 13:16:07;;;;;;;3.45;1.70;;;;;;;;;;5006606;28;20069;-78
2022/08/28 13:18:41;;;;;;;3.42;1.90;;;;;;;;;;5007262;28;20405;-80
2022/08/28 13:21:16;;;;;;;5.00;1.70;;;;;;;;;;5007501;28;20026;-76
2022/08/28 13:23:41;;;;;;;3.05;1.70;;;;;;;;;;5005519;28;20113;-76
2022/08/28 13:26:09;;;;;;;4.63;1.75;;;;;;;;;;5005523;28;20113;-84
2022/08/28 13:28:40;;;;;;;3.05;1.70;;;;;;;;;;5005583;28;20022;-81
2022/08/28 13:31:19;;;;;;;3.90;1.80;;;;;;;;;;5005969;28;20028;-81
2022/08/28 13:34:23;;;;;;;2.72;1.75;;;;;;;;;;5005581;28;20025;-84
2022/08/28 13:36:52;;;;;;;3.25;1.80;;;;;;;;;;5005250;28;20026;-84
2022/08/28 13:39:18;;;;;;;3.35;1.60;;;;;;;;;;5005645;28;20033;-83
2022/08/28 13:41:50;;;;;;;3.10;1.80;;;;;;;;;;5006498;28;20049;-84
2022/08/28 13:44:47;;;;;;;5.10;1.70;;;;;;;;;;5006749;28;20053;-85
2022/08/28 13:47:13;;;;;;;2.63;1.70;;;;;;;;;;5007061;28;20477;-83
2022/08/28 13:49:38;;;;;;;2.67;1.60;;;;;;;;;;5007076;28;20025;-82
2022/08/28 13:52:06;;;;;;;3.15;1.60;;;;;;;;;;5007425;28;20022;-83
2022/08/28 13:54:33;;;;;;;6.65;2.10;;;;;;;;;;5006901;28;20385;-81
2022/08/28 13:56:59;;;;;;;2.65;1.50;;;;;;;;;;5006652;28;20034;-84
2022/08/28 13:59:25;;;;;;;5.85;1.77;;;;;;;;;;5006802;28;20030;-78
2022/08/28 14:04:38;;;;;;;4.03;1.95;;;;;;;;;;5006990;28;20061;-78
2022/08/28 14:07:06;;;;;;;2.33;1.55;;;;;;;;;;5006878;28;20401;-78
2022/08/28 14:09:31;;;;;;;4.88;1.88;;;;;;;;;;5006842;28;20530;-78
2022/08/28 14:11:57;;;;;;;3.10;1.80;;;;;;;;;;5005645;28;20026;-78
2022/08/28 14:14:22;;;;;;;4.78;1.70;;;;;;;;;;5006255;28;20099;-79
2022/08/28 14:16:51;;;;;;;3.35;2.00;;;;;;;;;;5006575;28;20083;-76
2022/08/28 14:19:16;;;;;;;4.25;1.80;;;;;;;;;;5006500;28;20034;-77
2022/08/28 14:21:42;;;;;;;8.88;1.70;;;;;;;;;;5006611;28;20030;-77
2022/08/28 14:24:07;;;;;;;4.35;1.80;;;;;;;;;;5006506;28;20030;-76
2022/08/28 14:26:33;;;;;;;6.25;1.70;;;;;;;;;;5007056;28;20028;-76
2022/08/28 14:28:59;;;;;;;4.50;1.80;;;;;;;;;;5009723;28;20042;-76
2022/08/28 14:31:27;;;;;;;3.05;1.58;;;;;;;;;;5009365;28;20050;-77
2022/08/28 14:33:53;;;;;;;3.47;1.80;;;;;;;;;;5008840;28;20026;-76
2022/08/28 14:36:21;;;;;;;4.00;1.65;;;;;;;;;;5009299;28;20037;-75
2022/08/28 14:38:48;;;;;;;3.33;1.73;;;;;;;;;;4992196;28;20026;-75
2022/08/28 14:41:13;;;;;;;3.17;1.60;;;;;;;;;;5009648;28;20057;-76
2022/08/28 14:43:40;;;;;;;2.85;1.60;;;;;;;;;;5009550;28;20429;-78
2022/08/28 14:46:06;;;;;;;3.78;1.60;;;;;;;;;;5009698;28;20090;-76
2022/08/28 14:48:31;;;;;;;3.92;1.70;;;;;;;;;;5007800;28;20025;-74
2022/08/28 14:51:00;;;;;;;3.30;1.70;;;;;;;;;;4990571;28;20033;-74
2022/08/28 14:53:25;;;;;;;4.68;1.60;;;;;;;;;;5008537;28;20096;-76
2022/08/28 14:55:51;;;;;;;3.35;1.70;;;;;;;;;;5009099;28;20055;-74
2022/08/28 14:58:18;;;;;;;3.20;1.55;;;;;;;;;;4991720;28;20084;-73
2022/08/28 15:00:47;;;;;;;3.53;1.63;;;;;;;;;;5009482;28;20533;-73
2022/08/28 15:03:14;;;;;;;4.70;1.70;;;;;;;;;;5009519;28;20606;-74
2022/08/28 15:05:39;;;;;;;3.88;1.70;;;;;;;;;;5009331;28;20036;-73
2022/08/28 15:08:09;;;;;;;3.53;1.70;;;;;;;;;;5009206;28;20021;-73